LiveATC.Net - Listen to live air traffic control over the Internet!

Airport/ARTCC Code
Frequency Search
(e.g., 124.400, 128.75)
Site-wide search
 


Browse Feeds
Top 50 Feeds
Coverage Map
Bad Weather Areas

LiveATC FAQ
Offer LiveATC feed
Contact LiveATC.net
Press Inquiries

LiveATC on iPhone
LiveATC on Android

Windows Phone
Windows 8/10

LiveATC Mobile
(Mobile browser)

ATC Audio Archives
Interesting Recordings

LiveATC Forums

Home Page
About LiveATC.net
Make a Donation
Terms of Use
Privacy Policy

Canadian Air Freqs

AIRMETs/SIGMETs

FAA Airport Status
Nat'l Airspace Status
Arrival Demand Charts


Server Software By:
Icecast.org
Liquidsoap


Current Potentially Bad Weather Airports
(updated every 30 minutes - sorted alphabetically by ICAO code)



This page lists LiveATC.net airport areas that may be interesting to listen to because of challenging flying (weather) conditions. Challenging weather conditions include low ceilings, limited visibility, high or gusty winds, or thunderstorms.

Updated: Fri Nov 27 02:40:01 UTC 2020
Click on airport name to go to that airport area's feeds.

CYHU Tower Saint-Hubert Airport (Montreal, CA-QC)
cyhuNearest METAR:
CYHU 270204Z AUTO 32003KT 3/8SM R24R/4000FT/D FG VV004 01/01 A2993 RMK SLP139
CYHZ Del/Gnd/Twr/App #1 Halifax International Airport (Halifax, CA-NS)
WX MAP UNAVAILABLENearest METAR:
CYHZ 270200Z 14010KT 1/4SM R23/2800V3500FT/U R14/2800V4500FT/D -RA FG VV001 09/09 A3018 RMK FG8 SLP224
CYOW Gnd/Twr/App Ottawa MacDonald Cartier International Airport (Ottawa, CA-ON)
cyowNearest METAR:
CYOW 270200Z 00000KT 3/8SM R32/2400V2800FT/N R07/2000V2400FT/N FG VV002 01/01 A2993 RMK FG8 SLP143
CYQB App/Dep (Terminal/124.0) Quebec Jean Lesage International Airport (Quebec, CA-QC)
cyqbNearest METAR:
CYQB 270216Z 08006KT 1 1/4SM -DZ BR OVC002 01/01 A2996 RMK FG1ST7 SLP152
CYRQ CTAF Trois Rivieres Airport (Trois-Rivieres, CA-QC)
WX MAP UNAVAILABLENearest METAR:
CYRQ 270220Z AUTO 04005KT 1 1/2SM -RA BR OVC003 01/01 A2992 RMK SLP137
CYUL Approach/Departure Pierre Elliott Trudeau International Airport (Montreal, CA-QC)
cyulNearest METAR:
CYUL 270200Z 36004KT 6SM BR SCT002 OVC006 01/01 A2993 RMK SF3SF5 SLP139
CYVO Gnd/RDO/Center Val-D'Or Airport (Val-D'Or, CA-QC)
WX MAP UNAVAILABLENearest METAR:
CYVO 270200Z 24006KT 200V280 5SM -DZ BR OVC004 02/02 A2981 RMK ST8 SLP114
CYZF Gnd/Twr/Center Yellowknife Airport (Yellowknife, CA-NT)
WX MAP UNAVAILABLENearest METAR:
CYZF 270200Z 12019G26KT 3/4SM R34/P6000FT/D -SN DRSN OVC008 M12/M14 A2921 RMK SC8 SLP917
EFKU Tower/Approach Kuopio Airport (Siilinjarvi, Finland)
WX MAP UNAVAILABLENearest METAR:
EFKU 270220Z AUTO 34008KT 5000 -SN OVC005 M01/M01 Q1007
ENZV Gnd/Twr/App Stavanger Sola Airport (Stavanger, Norway)
WX MAP UNAVAILABLENearest METAR:
ENZV 270150Z VRB02KT 5000 R18/0600N R36/P2000N R11/1300N FZFG VV000 M01/M01 Q1020
EPKT Del/Twr/App Katowice International Airport (Katowice, Poland)
WX MAP UNAVAILABLENearest METAR:
EPKT 270200Z 21008KT 190V260 3000 BR OVC004 00/M01 Q1021
EPLL Tower Lublinek Airport (Lodz, Poland)
WX MAP UNAVAILABLENearest METAR:
EPLL 270200Z 24007KT 1600 BR OVC002 03/02 Q1019
EPPO Twr/App/FIS Poznan-Lawica Henryk Wieniawski Airport (Poznan, Poland)
WX MAP UNAVAILABLENearest METAR:
EPPO 270200Z 28007KT 1800 BR OVC002 05/05 Q1020
EPWR Twr/App Strachowice Airport (Wroclaw, Poland)
WX MAP UNAVAILABLENearest METAR:
EPWR 270200Z 28005KT 250V310 9999 OVC007 04/02 Q1021
EPWA Tower #2 Frederic Chopin Airport (Warsaw, Poland)
WX MAP UNAVAILABLENearest METAR:
EPWA 270200Z 27012KT 5000 BR OVC005 05/04 Q1018 NOSIG
ESDF Ronneby Control Ronneby Airport (Ronneby, Sweden)
WX MAP UNAVAILABLENearest METAR:
ESDF 270220Z AUTO 01003KT 330V030 9999 OVC009/// 03/02 Q1018
EYVI Twr/App/Misc Vilnius International Airport (Vilnius, Lithuania)
WX MAP UNAVAILABLENearest METAR:
EYVI 270220Z 21006KT 1800 -DZ BR OVC001 00/00 Q1010 R01/2///95 NOSIG
KACK Tower Nantucket Memorial Airport (Nantucket, US-MA)
kackNearest METAR:
KACK 270224Z AUTO 26010KT 1 1/4SM R24/5000VP6000FT BR OVC002 14/13 A3001 RMK AO2 T01390133
ZBW Boston Center (ALB22) General Edward Lawrence Logan International Airport (Boston, US-MA)
kbosNearest METAR:
KBOS 270157Z 29007KT 1SM R04R/P6000FT BR OVC004 08/07 A2999 RMK AO2 SFC VIS 6 T00780072
KASH Ground/FBO Boire Field Airport (Nashua, US-NH)
kashNearest METAR:
KASH 270224Z AUTO 00000KT 1 1/4SM BR BKN002 BKN008 03/03 A3000 RMK AO2
KMHT Boston App/Dep #3 Manchester Airport (Manchester, US-NH)
kmhtNearest METAR:
KMHT 270159Z 33005KT 1/2SM R35/P6000FT BR OVC003 06/04 A2998 RMK AO2 SFC VIS 3 T00560039
KAUG Del/CTAF Augusta State Airport (Augusta, US-ME)
kaugNearest METAR:
KAUG 270201Z AUTO 34005KT 1/4SM FG VV002 02/02 A2997 RMK AO2 T00220022
KBAF ATIS Barnes Municipal Airport (Westfield/Springfield, US-MA)
kbafNearest METAR:
KBAF 270224Z 00000KT 1/4SM R20/1400V1600FT FG VV002 04/04 A3000 RMK AO2 T00440044
Boston App/Dep (North Sat) #1 Laurence G Hanscom Field Airport (Bedford, US-MA)
kbedNearest METAR:
KBED 270151Z 26003KT 1/2SM R11/3000V4500FT FG OVC002 06/06 A2999 RMK AO2 SLP169 T00610056
KBGR Del/Gnd/Twr Bangor International Airport (Bangor, US-ME)
kbgrNearest METAR:
KBGR 270223Z 00000KT 2 1/2SM R15/4000VP6000FT -RA BR OVC003 03/02 A2996 RMK AO2 DZE20RAB20 P0000 T00280022
MA/NH/RI/CT Area CTAF Fitchburg Municipal Airport (Fitchburg, US-MA)
keenNearest METAR:
KEEN 270156Z AUTO 00000KT 1/4SM FG OVC003 06/06 A3000 RMK AO2 SLP168 T00610061 PNO $
MA/NH/RI/CT Area CTAF Fitchburg Municipal Airport (Fitchburg, US-MA)
kfitNearest METAR:
KFIT 270152Z AUTO 14003KT 1/2SM FG VV003 05/05 A3000 RMK AO2 SLP162 T00500050
MA/NH/RI/CT Area CTAF Fitchburg Municipal Airport (Fitchburg, US-MA)
kconNearest METAR:
KCON 270222Z AUTO 30003KT 1 1/4SM BR OVC002 04/04 A2999 RMK AO2 T00440039
MA/NH/RI/CT Area CTAF Fitchburg Municipal Airport (Fitchburg, US-MA)
koreNearest METAR:
KORE 270212Z AUTO 31004KT 3SM BR OVC002 08/08 A3000 RMK AO2 T00830083
KBVY Tower #1 Beverly Municipal Airport (Beverly, US-MA)
kbvyNearest METAR:
KBVY 270207Z AUTO 33005KT 2 1/2SM BR OVC002 08/07 A2998 RMK AO2 T00780072
KCAE Gnd/Twr/App Columbia Metropolitan Airport (Columbia, US-SC)
kcaeNearest METAR:
KCAE 270224Z 00000KT 1SM BR BKN002 BKN080 14/14 A3007 RMK AO2 RAE05 P0000 T01390139 RVRNO $
KCLT Del/Gnd/Twr Charlotte/Douglas International Airport (Charlotte, US-NC)
kcltNearest METAR:
KCLT 270227Z 19003KT 1 1/2SM R18C/2400VP6000FT BR FEW007 16/16 A3008 RMK AO2 VIS 1/2V4 T01610156
KCVO CTAF/Misc Corvallis Municipal Airport (Corvallis, US-OR)
kcvoNearest METAR:
KCVO 270227Z AUTO 26003KT 3/4SM BR CLR 03/03 A3044 RMK AO2 VIS 1/2V5 RVRNO
KFKA CTAF Fillmore County Airport (Preston, US-MN)
kfkaNearest METAR:
KFKA 270215Z AUTO 31007KT 5SM BR OVC006 M01/M01 A3003 RMK AO2 T10061015
KFLO App/Dep Florence Regional Airport (Florence, US-SC)
kfloNearest METAR:
KFLO 270211Z 00000KT 1/4SM FG BKN003 OVC090 16/16 A3008 RMK AO2 T01610156
Boston Approach (Cape North) Barnstable Municipal Airport-Boardman/Polando Field (Hyannis, US-MA)
kfmhNearest METAR:
KFMH 270155Z 25005KT 1/2SM FG OVC002 13/13 A2999
Boston Approach (Cape North) Barnstable Municipal Airport-Boardman/Polando Field (Hyannis, US-MA)
khyaNearest METAR:
KHYA 270156Z 24006KT 10SM OVC004 13/13 A2998 RMK AO2 SLP153 T01330133
KGFK Approach Grand Forks International Airport (Grand Forks, US-ND)
kgfkNearest METAR:
KGFK 270153Z 30021G30KT 10SM SCT024 BKN032 OVC070 02/M03 A2985 RMK AO2 PK WND 29030/0144 SLP119 T00221028
KGFL CTAF/App Floyd Bennett Memorial Airport (Glens Falls, US-NY)
kgflNearest METAR:
KGFL 270204Z AUTO 00000KT 1/4SM FG VV002 08/07 A2998 RMK AO2 T00780072
KGSO Approach/Departure Piedmont Triad International Airport (Greensboro, US-NC)
kgsoNearest METAR:
KGSO 270210Z 20003KT 1/4SM R05R/1600V2000FT FG VV002 11/11 A3006 RMK AO2 T01110111
KHKY ASOS Hickory Regional Airport (Hickory, US-NC)
khkyNearest METAR:
KHKY 270159Z AUTO 00000KT 1/4SM FG VV002 12/12 A3006 RMK AO2 T01220117 $
KMRN CTAF Foothills Regional Airport (Morganton, US-NC)
kmrnNearest METAR:
KMRN 270215Z AUTO 00000KT M1/4SM FG OVC001 10/10 A3011 RMK AO2 T00980096
KHUL/KPQI/ZBW01/15 Houlton International Airport (Houlton, US-ME)
kpqiNearest METAR:
KPQI 270213Z AUTO 33003KT 4SM BR OVC006 01/00 A2998 RMK AO2 UPE0157 CIG 003V008 PNO $
KHUL/KPQI/ZBW01/15 Houlton International Airport (Houlton, US-ME)
khulNearest METAR:
KHUL 270222Z AUTO 00000KT 3SM BR OVC004 02/01 A2995 RMK AO2 T00170011
5B6/KCQX/KPVC CTAF Falmouth Airpark (Falmouth, US-MA)
kcqxNearest METAR:
KCQX 270216Z AUTO 23004KT 3/4SM BR VV002 12/12 A3000 RMK AO2 T01220117
KINT Ground/Tower Smith Reynolds Airport (Winston Salem, US-NC)
kintNearest METAR:
KINT 270226Z 00000KT 1/4SM FG VV001 11/11 A3008 RMK AO2 T01060106
KIPJ CTAF/Del Lincolnton-Lincoln County Regional Airport (Lincolnton, US-NC)
kipjNearest METAR:
KIPJ 270235Z AUTO 00000KT M1/4SM FG 10/10 A3007 RMK AO2 T00960096
KJQF Ground/Tower Concord Regional Airport (Concord, US-NC)
kjqfNearest METAR:
KJQF 270150Z 00000KT 1/2SM FG VV003 13/12 A3009
KLHZ CTAF Triangle North Executive Airport (Louisburg, US-NC)
klhzNearest METAR:
KLHZ 270215Z AUTO 00000KT M1/4SM FG BKN001 OVC028 14/14 A3010 RMK AO2
MA/NH CTAF 122.8 Minute Man Air Field (Stow, US-MA)
kafnNearest METAR:
KAFN 270152Z AUTO 18003KT 1/2SM FG VV003 04/03 A2999 RMK AO2 SLP169 T00390028
KMOB Gnd/Twr/App Mobile Regional Airport (Mobile, US-AL)
kmobNearest METAR:
KMOB 270219Z 00000KT 5SM RA BR FEW050 BKN090 OVC110 18/18 A3010 RMK AO2 LTG DSNT SW AND W CB DSNT SW AND W P0003 T01830178 $
KONT Del/Gnd/Twr/App Ontario International Airport (Ontario, US-CA)
kontNearest METAR:
KONT 270153Z 05025G37KT 10SM CLR 16/M16 A3004 RMK AO2 PK WND 04043/0133 SLP171 T01561161
KOWD Ground/Tower Norwood Municipal Airport (Norwood, US-MA)
kowdNearest METAR:
KOWD 270212Z AUTO 00000KT 3/4SM BR VV002 11/09 A2999 RMK AO2 T01060094
KPHF Ground/Tower Newport News/Williamsburg International Airport (Newport News, US-VA)
kphfNearest METAR:
KPHF 270209Z AUTO 00000KT 1/4SM FG VV003 14/12 A3006 RMK AO2 T01390122
KPXE CTAF Perry-Houston County Airport (Perry, US-GA)
kpxeNearest METAR:
KPXE 270215Z AUTO 00000KT 1/4SM FG VV002 17/17 A3010 RMK AO2 T01700170
KRST Gnd/Twr/App Rochester International Airport (Rochester, US-MN)
krstNearest METAR:
KRST 270154Z 29009KT 8SM OVC005 M01/M02 A3003 RMK AO2 SLP186 T10061017
KTTA CTAF Raleigh Executive Jetport at Sanford-Lee County Airport (Sanford, US-NC)
kttaNearest METAR:
KTTA 270215Z AUTO 00000KT 1/4SM FG OVC002 12/12 A3007 RMK AO2 T01210121
KDMA/KTUS Twr/Ops/ZAB Tucson International Airport (Tucson, US-AZ)
kdmaNearest METAR:
KDMA 270158Z 30005KT 10SM CLR 15/M06 A2997 RMK AO2A SLPNO ALSTG ESTMD RVRNO FZRANO $
LBSF Twr/App #1 Sofia International Airport (Sofia, Bulgaria)
WX MAP UNAVAILABLENearest METAR:
LBSF 270200Z VRB02KT 0250 R27/0300N FZFG VV001 M04/M05 Q1024 NOSIG
LHDC Info/Tower Debrecen Airport (Debrecen, Hungary)
WX MAP UNAVAILABLENearest METAR:
LHDC 270208Z AUTO VRB02KT 5000 -SHRA BR OVC004 00/M00 Q1025
LHPR Info/AFIS Gyor-Per International Airport (Gyor, Hungary)
WX MAP UNAVAILABLENearest METAR:
LHPR 270145Z AUTO VRB03KT 6000 OVC008 01/M00 Q1024
LJLJ Radar Ljubljana Joze Pucnik Airport (Ljubljana, Slovenia)
WX MAP UNAVAILABLENearest METAR:
LJLJ 270200Z VRB02KT 0400 R30/0900N FZFG VV001 M02/M02 Q1023 NOSIG
LKAA FIR (High) Prague Vaclav Havel Airport (Prague, Czech Republic)
WX MAP UNAVAILABLENearest METAR:
LKPR 270220Z 22004KT 190V250 0800 R24/1800U FZFG SCT001 OVC002 M01/M01 Q1022 RMK REG QNH 1019
LKKV Tower Karlovy Vary Airport (Karlovy Vary, Czech Republic)
WX MAP UNAVAILABLENearest METAR:
LKKV 270200Z VRB01KT 0400 R29/0500N FZFG VV001 M03/M03 Q1020
LKTB Gnd/Twr/Radar Brno-Turany Airport (Brno, Czech Republic)
WX MAP UNAVAILABLENearest METAR:
LKTB 270200Z 26005KT 230V300 1500 BR OVC002 M01/M01 Q1023 NOSIG
LRCL Twr/App #1 Cluj-Napoca International Airport (Cluj-Napoca, Romania)
WX MAP UNAVAILABLENearest METAR:
LRCL 270200Z VRB01KT 0800 R25/1000N FZFG VV002 M03/M04 Q1024
LRSB Tower/CTAF Sibiu International Airport (Sibiu, Romania)
WX MAP UNAVAILABLENearest METAR:
LRSB 270200Z 27002KT 0900 R27/1400U -SN FZFG BKN003 M04/M05 Q1023
LRTR Tower Traian Vuia International Airport (Timisoara, Romania)
WX MAP UNAVAILABLENearest METAR:
LRTR 270200Z 08003KT 3500 BR BKN002 OVC003 00/00 Q1024
LSZB Twr/App/Dep Bern-Belp Airport (Bern, Switzerland)
WX MAP UNAVAILABLENearest METAR:
LSZB 270220Z AUTO VRB02KT 0300 R14/0325U FZFG VV001 M01/M01 Q1021
LSZG Tower Grenchen Airport (Grenchen, Switzerland)
WX MAP UNAVAILABLENearest METAR:
LSZG 270220Z AUTO 30002KT 0550 FG VV002 00/00 Q1022 REFZDZ
LSZH Approach (East) Zurich International Airport (Zurich, Switzerland)
WX MAP UNAVAILABLENearest METAR:
LSZH 270220Z VRB02KT 0700 R14/P2000N R16/P2000N R28/P2000N R34/P2000N PRFG VV002 01/01 Q1022 TEMPO 0500 VV001
LSMD Tower Dubendorf Air Base (Dubendorf, Switzerland)
WX MAP UNAVAILABLENearest METAR:
LSMD 270220Z AUTO 15003KT 110V170 1500NDV FG OVC002 01/00 Q1022 RMK
LSZR Tower St. Gallen-Altenrhein Airport (Altenrhein, Switzerland)
WX MAP UNAVAILABLENearest METAR:
LSZR 270220Z AUTO 09006KT 0350 R10/0350U FZFG VV001 M00/M00 Q1022
LUKK Approach #1 Chisinau International Airport (Chisinau, Moldova)
WX MAP UNAVAILABLENearest METAR:
LUKK 270200Z 19006KT 0550 0450SE R08/0650N FZFG VV001 00/M00 Q1021 R08/CLRD// BECMG 0300 FZFG
LYNI Twr/App Constantine the Great Airport (Nis, Serbia)
WX MAP UNAVAILABLENearest METAR:
LYNI 270200Z 34003KT 320V030 0300 R29/0800U R11/0400N FZFG VV002 M02/M03 Q1024 NOSIG
LZKZ Gnd/Twr/App Kosice International Airport (Kosice, Slovakia)
WX MAP UNAVAILABLENearest METAR:
LZKZ 270200Z 24005KT 210V270 9999 OVC009 M01/M02 Q1024
LZPP Ground/Tower Piestany Airport (Piestany, Slovakia)
WX MAP UNAVAILABLENearest METAR:
LZPP 270200Z AUTO 09003KT 060V130 4300 BR OVC007/// 00/M01 Q1024
MHLM Gnd/Twr/App Ramon Villeda Morales International Airport (San Pedro Sula, Honduras)
WX MAP UNAVAILABLENearest METAR:
MHLM 050400Z 00000KT 5000 -TSRA FEW007 SCT018 FEW020CB OVC070 23/23 Q1007 A2984 NOSIG
PABE ATIS Bethel Airport (Bethel, US-AK)
pabeNearest METAR:
PABE 270228Z 13004KT 3/4SM R19R/3500V4500FT -SN BR SCT007 BKN011 OVC035 M04/M04 A2943 RMK AO2 P0000 T10391039
PAHO AWOS/AFIS Homer Airport (Homer, US-AK)
pahoNearest METAR:
PAHO 270212Z 04010KT 6SM -SN BR FEW020 BKN030 OVC037 01/00 A2939 RMK AO2 UPB0155E0158RAB0158E10SNE0155B10 P0001 T00110000 $
PASC CTAF/Unicom/AFIS/App Deadhorse Airport (Deadhorse, US-AK)
WX MAP UNAVAILABLENearest METAR:
PASC 270153Z 06018KT 3SM -SN BLSN BR OVC011 M13/M16 A2954 RMK AO2 SLP005 T11331156
SBCT Gnd/Twr/App Afonso Pena Airport (Curitiba, Brazil)
WX MAP UNAVAILABLENearest METAR:
SBCT 270200Z 07008KT 9999 -TSRA SCT045 FEW050CB OVC100 19/18 Q1020
UNNT Gnd/Twr/App/Radar/Misc Tolmachevo Airport (Novosibirsk, Russia)
WX MAP UNAVAILABLENearest METAR:
UNNT 270200Z 34002MPS 6000 -SHSN OVC030CB M12/M13 Q1038 R16/490155 R07/490250 NOSIG RMK QFE769/1025
UNOO Gnd/Tower/App Omsk Airport (Omsk, Russia)
WX MAP UNAVAILABLENearest METAR:
UNOO 270200Z 13006MPS 8000 -SN BKN009 M07/M09 Q1034 R25/390040 NOSIG RMK QFE767
URKK Gnd/Twr/App Pashkovskiy General Airport (Krasnodar, Russia)
WX MAP UNAVAILABLENearest METAR:
URKK 270200Z 07001MPS 0300 0250E R23L/1000D FZFG FEW010 M02/M02 Q1027 R23L/CLRD70 TEMPO 0200 FZFG BKN001 RMK QFE767
URMT Twr/App/Control Stavropol Shpakovskoye Airport (Stavropol, Russia)
WX MAP UNAVAILABLENearest METAR:
URMT 270200Z 23002MPS 1500 R25/P2000N BR BCFG VV003 M01/M01 Q1026 R25/290250 NOSIG RMK QBB090 OBST OBSC QFE730
USTR Gnd/Twr/App Roshchino International Airport (Tyumen, Russia)
WX MAP UNAVAILABLENearest METAR:
USTR 270200Z 12002MPS 9000 -SN OVC009 M09/M11 Q1030 R21/450255 R12/450255 TEMPO 2100 -SN BKN007 OVC015 RMK QFE763/1017